sensor_id;sensor_type;location;lat;lon;timestamp;temperature;humidity
66343;DHT22;53144;51.524;5.080;2023-05-10T00:01:00;12.60;99.99
66343;DHT22;53144;51.524;5.080;2023-05-10T00:03:26;12.57;99.99
66343;DHT22;53144;51.524;5.080;2023-05-10T00:05:51;12.50;99.99
66343;DHT22;53144;51.524;5.080;2023-05-10T00:08:16;12.48;99.99
66343;DHT22;53144;51.524;5.080;2023-05-10T00:10:42;12.49;99.99
66343;DHT22;53144;51.524;5.080;2023-05-10T00:13:07;12.43;99.99
66343;DHT22;53144;51.524;5.080;2023-05-10T00:15:32;12.42;99.99
66343;DHT22;53144;51.524;5.080;2023-05-10T00:17:59;12.46;99.99
66343;DHT22;53144;51.524;5.080;2023-05-10T00:20:25;12.53;99.99
66343;DHT22;53144;51.524;5.080;2023-05-10T00:22:50;12.55;99.99
66343;DHT22;53144;51.524;5.080;2023-05-10T00:25:16;12.55;99.99
66343;DHT22;53144;51.524;5.080;2023-05-10T00:27:41;12.57;99.99
66343;DHT22;53144;51.524;5.080;2023-05-10T00:30:07;12.56;99.99
66343;DHT22;53144;51.524;5.080;2023-05-10T00:32:32;12.59;99.99
66343;DHT22;53144;51.524;5.080;2023-05-10T00:34:58;12.63;99.99
66343;DHT22;53144;51.524;5.080;2023-05-10T00:37:23;12.60;99.99
66343;DHT22;53144;51.524;5.080;2023-05-10T00:39:49;12.62;99.99
66343;DHT22;53144;51.524;5.080;2023-05-10T00:42:14;12.59;99.99
66343;DHT22;53144;51.524;5.080;2023-05-10T00:44:39;12.60;99.99
66343;DHT22;53144;51.524;5.080;2023-05-10T00:47:05;12.63;99.99
66343;DHT22;53144;51.524;5.080;2023-05-10T00:49:31;12.66;99.99
66343;DHT22;53144;51.524;5.080;2023-05-10T00:51:56;12.67;99.99
66343;DHT22;53144;51.524;5.080;2023-05-10T00:54:22;12.73;99.99
66343;DHT22;53144;51.524;5.080;2023-05-10T00:56:47;12.76;99.99
66343;DHT22;53144;51.524;5.080;2023-05-10T00:59:17;12.72;99.99
66343;DHT22;53144;51.524;5.080;2023-05-10T01:01:46;12.70;99.99
66343;DHT22;53144;51.524;5.080;2023-05-10T01:04:13;12.69;99.99
66343;DHT22;53144;51.524;5.080;2023-05-10T01:06:39;12.69;99.99
66343;DHT22;53144;51.524;5.080;2023-05-10T01:09:05;12.62;99.99
66343;DHT22;53144;51.524;5.080;2023-05-10T01:11:33;12.60;99.99
66343;DHT22;53144;51.524;5.080;2023-05-10T01:13:58;12.63;99.99
66343;DHT22;53144;51.524;5.080;2023-05-10T01:16:24;12.66;99.99
66343;DHT22;53144;51.524;5.080;2023-05-10T01:18:50;12.63;99.99
66343;DHT22;53144;51.524;5.080;2023-05-10T01:24:12;12.62;99.99
66343;DHT22;53144;51.524;5.080;2023-05-10T01:29:30;12.59;99.99
66343;DHT22;53144;51.524;5.080;2023-05-10T01:35:05;12.69;99.99
66343;DHT22;53144;51.524;5.080;2023-05-10T01:37:55;12.75;99.99
66343;DHT22;53144;51.524;5.080;2023-05-10T01:40:39;12.80;99.99
66343;DHT22;53144;51.524;5.080;2023-05-10T01:43:12;12.80;99.99
66343;DHT22;53144;51.524;5.080;2023-05-10T01:45:51;12.82;99.99
66343;DHT22;53144;51.524;5.080;2023-05-10T01:48:22;12.79;99.99
66343;DHT22;53144;51.524;5.080;2023-05-10T01:50:50;12.83;99.99
66343;DHT22;53144;51.524;5.080;2023-05-10T01:53:18;12.87;99.99
66343;DHT22;53144;51.524;5.080;2023-05-10T01:55:48;12.87;99.99
66343;DHT22;53144;51.524;5.080;2023-05-10T01:58:17;12.87;99.99
66343;DHT22;53144;51.524;5.080;2023-05-10T02:00:45;12.87;99.99
66343;DHT22;53144;51.524;5.080;2023-05-10T02:03:13;12.90;99.99
66343;DHT22;53144;51.524;5.080;2023-05-10T02:05:41;12.91;99.99
66343;DHT22;53144;51.524;5.080;2023-05-10T02:08:09;12.90;99.99
66343;DHT22;53144;51.524;5.080;2023-05-10T02:10:35;12.91;99.99
66343;DHT22;53144;51.524;5.080;2023-05-10T02:13:02;12.96;99.99
66343;DHT22;53144;51.524;5.080;2023-05-10T02:15:29;12.94;99.99
66343;DHT22;53144;51.524;5.080;2023-05-10T02:17:55;12.97;99.99
66343;DHT22;53144;51.524;5.080;2023-05-10T02:20:23;12.94;99.99
66343;DHT22;53144;51.524;5.080;2023-05-10T02:22:51;12.99;99.99
66343;DHT22;53144;51.524;5.080;2023-05-10T02:25:19;13.00;99.99
66343;DHT22;53144;51.524;5.080;2023-05-10T02:27:46;13.03;99.99
66343;DHT22;53144;51.524;5.080;2023-05-10T02:30:13;13.01;99.99
66343;DHT22;53144;51.524;5.080;2023-05-10T02:32:39;13.00;99.99
66343;DHT22;53144;51.524;5.080;2023-05-10T02:35:06;13.01;99.99
66343;DHT22;53144;51.524;5.080;2023-05-10T02:37:32;13.01;99.99
66343;DHT22;53144;51.524;5.080;2023-05-10T02:39:59;13.06;99.99
66343;DHT22;53144;51.524;5.080;2023-05-10T02:42:27;13.04;99.99
66343;DHT22;53144;51.524;5.080;2023-05-10T02:44:56;13.07;99.99
66343;DHT22;53144;51.524;5.080;2023-05-10T02:47:24;13.04;99.99
66343;DHT22;53144;51.524;5.080;2023-05-10T02:49:49;13.06;99.99
66343;DHT22;53144;51.524;5.080;2023-05-10T02:52:21;13.00;99.99
66343;DHT22;53144;51.524;5.080;2023-05-10T02:54:50;12.99;99.99
66343;DHT22;53144;51.524;5.080;2023-05-10T02:57:22;12.99;99.99
66343;DHT22;53144;51.524;5.080;2023-05-10T02:59:50;13.03;99.99
66343;DHT22;53144;51.524;5.080;2023-05-10T03:02:15;12.91;99.99
66343;DHT22;53144;51.524;5.080;2023-05-10T03:04:41;12.94;99.99
66343;DHT22;53144;51.524;5.080;2023-05-10T03:07:07;12.91;99.99
66343;DHT22;53144;51.524;5.080;2023-05-10T03:09:33;12.87;99.99
66343;DHT22;53144;51.524;5.080;2023-05-10T03:17:55;12.87;99.99
66343;DHT22;53144;51.524;5.080;2023-05-10T03:20:25;12.84;99.99
66343;DHT22;53144;51.524;5.080;2023-05-10T03:22:55;12.89;99.99
66343;DHT22;53144;51.524;5.080;2023-05-10T03:25:25;12.91;99.99
66343;DHT22;53144;51.524;5.080;2023-05-10T03:27:51;12.94;99.99
66343;DHT22;53144;51.524;5.080;2023-05-10T03:30:18;12.83;99.99
66343;DHT22;53144;51.524;5.080;2023-05-10T03:32:44;12.80;99.99
66343;DHT22;53144;51.524;5.080;2023-05-10T03:35:10;12.80;99.99
66343;DHT22;53144;51.524;5.080;2023-05-10T03:37:37;12.80;99.99
66343;DHT22;53144;51.524;5.080;2023-05-10T03:40:03;12.75;99.99
66343;DHT22;53144;51.524;5.080;2023-05-10T03:42:28;12.62;99.99
66343;DHT22;53144;51.524;5.080;2023-05-10T03:44:53;12.60;99.99
66343;DHT22;53144;51.524;5.080;2023-05-10T03:47:19;12.60;99.99
66343;DHT22;53144;51.524;5.080;2023-05-10T03:49:45;12.59;99.99
66343;DHT22;53144;51.524;5.080;2023-05-10T03:52:10;12.57;99.99
66343;DHT22;53144;51.524;5.080;2023-05-10T03:54:36;12.56;99.99
66343;DHT22;53144;51.524;5.080;2023-05-10T03:57:01;12.53;99.99
66343;DHT22;53144;51.524;5.080;2023-05-10T03:59:28;12.46;99.99
66343;DHT22;53144;51.524;5.080;2023-05-10T04:01:53;12.42;99.99
66343;DHT22;53144;51.524;5.080;2023-05-10T04:04:18;12.41;99.99
66343;DHT22;53144;51.524;5.080;2023-05-10T04:06:46;12.35;99.99
66343;DHT22;53144;51.524;5.080;2023-05-10T04:09:11;12.33;99.99
66343;DHT22;53144;51.524;5.080;2023-05-10T04:11:36;12.28;99.99
66343;DHT22;53144;51.524;5.080;2023-05-10T04:14:02;12.29;99.99
66343;DHT22;53144;51.524;5.080;2023-05-10T04:16:27;12.31;99.99
66343;DHT22;53144;51.524;5.080;2023-05-10T04:18:52;12.28;99.99
66343;DHT22;53144;51.524;5.080;2023-05-10T04:21:18;12.29;99.99
66343;DHT22;53144;51.524;5.080;2023-05-10T04:23:43;12.28;99.99
66343;DHT22;53144;51.524;5.080;2023-05-10T04:26:08;12.25;99.99
66343;DHT22;53144;51.524;5.080;2023-05-10T04:28:34;12.25;99.99
66343;DHT22;53144;51.524;5.080;2023-05-10T04:31:07;12.25;99.99
66343;DHT22;53144;51.524;5.080;2023-05-10T04:33:33;12.25;99.99
66343;DHT22;53144;51.524;5.080;2023-05-10T04:35:58;12.29;99.99
66343;DHT22;53144;51.524;5.080;2023-05-10T04:38:24;12.28;99.99
66343;DHT22;53144;51.524;5.080;2023-05-10T04:40:49;12.29;99.99
66343;DHT22;53144;51.524;5.080;2023-05-10T04:43:15;12.22;99.99
66343;DHT22;53144;51.524;5.080;2023-05-10T04:45:40;12.24;99.99
66343;DHT22;53144;51.524;5.080;2023-05-10T04:48:05;12.28;99.99
66343;DHT22;53144;51.524;5.080;2023-05-10T04:50:31;12.24;99.99
66343;DHT22;53144;51.524;5.080;2023-05-10T04:52:56;12.26;99.99
66343;DHT22;53144;51.524;5.080;2023-05-10T04:55:22;12.29;99.99
66343;DHT22;53144;51.524;5.080;2023-05-10T04:57:47;12.32;99.99
66343;DHT22;53144;51.524;5.080;2023-05-10T05:00:13;12.33;99.99
66343;DHT22;53144;51.524;5.080;2023-05-10T05:02:42;12.29;99.99
66343;DHT22;53144;51.524;5.080;2023-05-10T05:05:07;12.33;99.99
66343;DHT22;53144;51.524;5.080;2023-05-10T05:07:33;12.28;99.99
66343;DHT22;53144;51.524;5.080;2023-05-10T05:09:58;12.36;99.99
66343;DHT22;53144;51.524;5.080;2023-05-10T05:12:23;12.32;99.99
66343;DHT22;53144;51.524;5.080;2023-05-10T05:14:49;12.33;99.99
66343;DHT22;53144;51.524;5.080;2023-05-10T05:17:14;12.33;99.99
66343;DHT22;53144;51.524;5.080;2023-05-10T05:19:39;12.33;99.99
66343;DHT22;53144;51.524;5.080;2023-05-10T05:22:06;12.42;99.99
66343;DHT22;53144;51.524;5.080;2023-05-10T05:24:36;12.49;99.99
66343;DHT22;53144;51.524;5.080;2023-05-10T05:27:03;12.46;99.99
66343;DHT22;53144;51.524;5.080;2023-05-10T05:29:28;12.53;99.99
66343;DHT22;53144;51.524;5.080;2023-05-10T05:31:54;12.53;99.99
66343;DHT22;53144;51.524;5.080;2023-05-10T05:34:19;12.59;99.99
66343;DHT22;53144;51.524;5.080;2023-05-10T05:36:45;12.56;99.99
66343;DHT22;53144;51.524;5.080;2023-05-10T05:39:11;12.56;99.99
66343;DHT22;53144;51.524;5.080;2023-05-10T05:41:36;12.53;99.99
66343;DHT22;53144;51.524;5.080;2023-05-10T05:44:01;12.56;99.99
66343;DHT22;53144;51.524;5.080;2023-05-10T05:46:27;12.60;99.99
66343;DHT22;53144;51.524;5.080;2023-05-10T05:48:52;12.66;99.99
66343;DHT22;53144;51.524;5.080;2023-05-10T05:51:17;12.69;99.99
66343;DHT22;53144;51.524;5.080;2023-05-10T05:53:43;12.64;99.99
66343;DHT22;53144;51.524;5.080;2023-05-10T05:56:08;12.66;99.99
66343;DHT22;53144;51.524;5.080;2023-05-10T05:58:34;12.52;99.99
66343;DHT22;53144;51.524;5.080;2023-05-10T06:01:00;12.63;99.99
66343;DHT22;53144;51.524;5.080;2023-05-10T06:03:26;12.66;99.99
66343;DHT22;53144;51.524;5.080;2023-05-10T06:05:51;12.70;99.99
66343;DHT22;53144;51.524;5.080;2023-05-10T06:08:17;12.67;99.99
66343;DHT22;53144;51.524;5.080;2023-05-10T06:10:42;12.63;99.99
66343;DHT22;53144;51.524;5.080;2023-05-10T06:13:07;12.64;99.99
66343;DHT22;53144;51.524;5.080;2023-05-10T06:15:33;12.67;99.99
66343;DHT22;53144;51.524;5.080;2023-05-10T06:17:58;12.66;99.99
66343;DHT22;53144;51.524;5.080;2023-05-10T06:20:24;12.84;99.99
66343;DHT22;53144;51.524;5.080;2023-05-10T06:22:49;12.97;99.99
66343;DHT22;53144;51.524;5.080;2023-05-10T06:25:14;13.03;99.99
66343;DHT22;53144;51.524;5.080;2023-05-10T06:27:43;13.00;99.61
66343;DHT22;53144;51.524;5.080;2023-05-10T06:30:08;13.06;99.94
66343;DHT22;53144;51.524;5.080;2023-05-10T06:32:34;13.08;99.79
66343;DHT22;53144;51.524;5.080;2023-05-10T06:34:59;13.18;99.65
66343;DHT22;53144;51.524;5.080;2023-05-10T06:37:24;13.14;99.43
66343;DHT22;53144;51.524;5.080;2023-05-10T06:39:50;13.03;99.23
66343;DHT22;53144;51.524;5.080;2023-05-10T06:42:15;13.03;99.47
66343;DHT22;53144;51.524;5.080;2023-05-10T06:44:40;13.03;99.41
66343;DHT22;53144;51.524;5.080;2023-05-10T06:47:06;12.77;99.23
66343;DHT22;53144;51.524;5.080;2023-05-10T06:49:32;12.80;99.12
66343;DHT22;53144;51.524;5.080;2023-05-10T06:51:57;12.79;99.02
66343;DHT22;53144;51.524;5.080;2023-05-10T06:54:25;12.84;99.20
66343;DHT22;53144;51.524;5.080;2023-05-10T06:56:50;12.86;98.85
66343;DHT22;53144;51.524;5.080;2023-05-10T06:59:15;12.90;98.73
66343;DHT22;53144;51.524;5.080;2023-05-10T07:01:42;13.00;98.35
66343;DHT22;53144;51.524;5.080;2023-05-10T07:04:07;12.84;97.58
66343;DHT22;53144;51.524;5.080;2023-05-10T07:06:32;12.91;98.25
66343;DHT22;53144;51.524;5.080;2023-05-10T07:08:58;12.91;98.24
66343;DHT22;53144;51.524;5.080;2023-05-10T07:11:24;12.96;97.71
66343;DHT22;53144;51.524;5.080;2023-05-10T07:13:49;12.99;98.02
66343;DHT22;53144;51.524;5.080;2023-05-10T07:16:15;13.15;97.97
66343;DHT22;53144;51.524;5.080;2023-05-10T07:18:40;13.17;96.98
66343;DHT22;53144;51.524;5.080;2023-05-10T07:21:06;13.18;97.06
66343;DHT22;53144;51.524;5.080;2023-05-10T07:23:31;13.25;97.38
66343;DHT22;53144;51.524;5.080;2023-05-10T07:25:57;13.10;97.14
66343;DHT22;53144;51.524;5.080;2023-05-10T07:28:25;13.25;96.77
66343;DHT22;53144;51.524;5.080;2023-05-10T07:30:53;13.31;96.69
66343;DHT22;53144;51.524;5.080;2023-05-10T07:33:19;13.25;95.91
66343;DHT22;53144;51.524;5.080;2023-05-10T07:35:44;13.28;95.69
66343;DHT22;53144;51.524;5.080;2023-05-10T07:38:09;13.22;95.41
66343;DHT22;53144;51.524;5.080;2023-05-10T07:40:36;13.35;95.94
66343;DHT22;53144;51.524;5.080;2023-05-10T07:43:02;13.38;95.60
66343;DHT22;53144;51.524;5.080;2023-05-10T07:45:27;13.58;95.84
66343;DHT22;53144;51.524;5.080;2023-05-10T07:47:53;13.57;95.33
66343;DHT22;53144;51.524;5.080;2023-05-10T07:50:18;13.73;94.17
66343;DHT22;53144;51.524;5.080;2023-05-10T07:52:44;13.78;93.82
66343;DHT22;53144;51.524;5.080;2023-05-10T07:55:10;14.05;94.30
66343;DHT22;53144;51.524;5.080;2023-05-10T07:57:35;14.05;93.64
66343;DHT22;53144;51.524;5.080;2023-05-10T08:00:01;14.12;93.04
66343;DHT22;53144;51.524;5.080;2023-05-10T08:02:30;14.24;93.66
66343;DHT22;53144;51.524;5.080;2023-05-10T08:04:55;14.40;93.08
66343;DHT22;53144;51.524;5.080;2023-05-10T08:07:21;14.42;92.05
66343;DHT22;53144;51.524;5.080;2023-05-10T08:09:46;14.45;92.69
66343;DHT22;53144;51.524;5.080;2023-05-10T08:12:15;14.51;92.65
66343;DHT22;53144;51.524;5.080;2023-05-10T08:14:40;14.52;91.58
66343;DHT22;53144;51.524;5.080;2023-05-10T08:17:06;14.34;90.84
66343;DHT22;53144;51.524;5.080;2023-05-10T08:19:31;14.20;90.89
66343;DHT22;53144;51.524;5.080;2023-05-10T08:21:57;14.38;92.62
66343;DHT22;53144;51.524;5.080;2023-05-10T08:24:23;14.51;91.93
66343;DHT22;53144;51.524;5.080;2023-05-10T08:26:48;14.65;91.30
66343;DHT22;53144;51.524;5.080;2023-05-10T08:29:14;14.89;89.73
66343;DHT22;53144;51.524;5.080;2023-05-10T08:31:40;15.13;89.39
66343;DHT22;53144;51.524;5.080;2023-05-10T08:34:11;15.42;87.79
66343;DHT22;53144;51.524;5.080;2023-05-10T08:36:40;15.61;86.84
66343;DHT22;53144;51.524;5.080;2023-05-10T08:39:05;15.43;86.40
66343;DHT22;53144;51.524;5.080;2023-05-10T08:41:33;15.53;87.64
66343;DHT22;53144;51.524;5.080;2023-05-10T08:43:59;15.60;88.61
66343;DHT22;53144;51.524;5.080;2023-05-10T08:46:28;15.54;86.74
66343;DHT22;53144;51.524;5.080;2023-05-10T08:48:56;15.44;86.23
66343;DHT22;53144;51.524;5.080;2023-05-10T08:51:25;15.06;86.50
66343;DHT22;53144;51.524;5.080;2023-05-10T08:53:52;15.30;88.54
66343;DHT22;53144;51.524;5.080;2023-05-10T08:56:17;15.47;86.81
66343;DHT22;53144;51.524;5.080;2023-05-10T08:58:43;15.68;85.68
66343;DHT22;53144;51.524;5.080;2023-05-10T09:01:09;15.80;85.46
66343;DHT22;53144;51.524;5.080;2023-05-10T09:03:35;15.74;84.36
66343;DHT22;53144;51.524;5.080;2023-05-10T09:06:02;16.00;85.51
66343;DHT22;53144;51.524;5.080;2023-05-10T09:08:28;15.64;83.48
66343;DHT22;53144;51.524;5.080;2023-05-10T09:10:54;15.83;86.18
66343;DHT22;53144;51.524;5.080;2023-05-10T09:13:21;15.77;84.96
66343;DHT22;53144;51.524;5.080;2023-05-10T09:15:48;15.90;85.85
66343;DHT22;53144;51.524;5.080;2023-05-10T09:18:13;15.80;84.79
66343;DHT22;53144;51.524;5.080;2023-05-10T09:20:39;15.61;85.48
66343;DHT22;53144;51.524;5.080;2023-05-10T09:23:05;15.57;86.70
66343;DHT22;53144;51.524;5.080;2023-05-10T09:25:31;15.51;85.67
66343;DHT22;53144;51.524;5.080;2023-05-10T09:27:58;15.36;85.62
66343;DHT22;53144;51.524;5.080;2023-05-10T09:30:25;15.44;85.92
66343;DHT22;53144;51.524;5.080;2023-05-10T09:32:50;15.25;85.61
66343;DHT22;53144;51.524;5.080;2023-05-10T09:35:18;15.29;87.10
66343;DHT22;53144;51.524;5.080;2023-05-10T09:37:45;15.32;85.87
66343;DHT22;53144;51.524;5.080;2023-05-10T09:40:17;15.36;86.90
66343;DHT22;53144;51.524;5.080;2023-05-10T09:42:51;15.47;87.43
66343;DHT22;53144;51.524;5.080;2023-05-10T09:45:18;15.63;86.73
66343;DHT22;53144;51.524;5.080;2023-05-10T09:47:44;15.71;86.88
66343;DHT22;53144;51.524;5.080;2023-05-10T09:50:10;15.57;84.73
66343;DHT22;53144;51.524;5.080;2023-05-10T09:52:50;15.60;85.94
66343;DHT22;53144;51.524;5.080;2023-05-10T09:55:17;15.60;86.28
66343;DHT22;53144;51.524;5.080;2023-05-10T09:57:43;15.43;86.24
66343;DHT22;53144;51.524;5.080;2023-05-10T10:00:08;15.53;86.68
66343;DHT22;53144;51.524;5.080;2023-05-10T10:02:39;15.54;84.73
66343;DHT22;53144;51.524;5.080;2023-05-10T10:05:06;15.60;83.23
66343;DHT22;53144;51.524;5.080;2023-05-10T10:07:32;15.84;84.88
66343;DHT22;53144;51.524;5.080;2023-05-10T10:09:58;16.01;84.34
66343;DHT22;53144;51.524;5.080;2023-05-10T10:12:24;15.90;84.01
66343;DHT22;53144;51.524;5.080;2023-05-10T10:14:50;15.80;86.11
66343;DHT22;53144;51.524;5.080;2023-05-10T10:17:17;15.63;86.00
66343;DHT22;53144;51.524;5.080;2023-05-10T10:19:42;15.40;85.02
66343;DHT22;53144;51.524;5.080;2023-05-10T10:22:08;15.25;86.44
66343;DHT22;53144;51.524;5.080;2023-05-10T10:24:37;15.26;87.69
66343;DHT22;53144;51.524;5.080;2023-05-10T10:27:33;15.27;88.11
66343;DHT22;53144;51.524;5.080;2023-05-10T10:30:33;15.36;89.80
66343;DHT22;53144;51.524;5.080;2023-05-10T10:35:47;15.42;89.00
66343;DHT22;53144;51.524;5.080;2023-05-10T10:38:13;15.47;87.32
66343;DHT22;53144;51.524;5.080;2023-05-10T10:40:39;15.50;85.37
66343;DHT22;53144;51.524;5.080;2023-05-10T10:43:27;15.74;85.34
66343;DHT22;53144;51.524;5.080;2023-05-10T10:46:10;15.94;84.91
66343;DHT22;53144;51.524;5.080;2023-05-10T10:48:39;16.11;85.43
66343;DHT22;53144;51.524;5.080;2023-05-10T10:51:05;16.19;87.09
66343;DHT22;53144;51.524;5.080;2023-05-10T10:53:30;16.12;82.66
66343;DHT22;53144;51.524;5.080;2023-05-10T10:56:12;16.24;83.35
66343;DHT22;53144;51.524;5.080;2023-05-10T10:58:40;16.94;82.27
66343;DHT22;53144;51.524;5.080;2023-05-10T11:01:19;18.14;79.38
66343;DHT22;53144;51.524;5.080;2023-05-10T11:06:29;16.87;81.97
66343;DHT22;53144;51.524;5.080;2023-05-10T11:08:56;16.64;82.36
66343;DHT22;53144;51.524;5.080;2023-05-10T11:11:22;15.95;82.85
66343;DHT22;53144;51.524;5.080;2023-05-10T11:13:47;15.93;82.31
66343;DHT22;53144;51.524;5.080;2023-05-10T11:16:20;16.00;83.91
66343;DHT22;53144;51.524;5.080;2023-05-10T11:18:53;15.91;82.94
66343;DHT22;53144;51.524;5.080;2023-05-10T11:21:19;16.11;82.34
66343;DHT22;53144;51.524;5.080;2023-05-10T11:24:12;16.14;82.03
66343;DHT22;53144;51.524;5.080;2023-05-10T11:26:36;16.26;80.94
66343;DHT22;53144;51.524;5.080;2023-05-10T11:29:02;16.22;80.79
66343;DHT22;53144;51.524;5.080;2023-05-10T11:31:29;16.38;79.83
66343;DHT22;53144;51.524;5.080;2023-05-10T11:33:59;16.64;81.07
66343;DHT22;53144;51.524;5.080;2023-05-10T11:36:28;16.87;82.03
66343;DHT22;53144;51.524;5.080;2023-05-10T11:38:57;16.77;79.83
66343;DHT22;53144;51.524;5.080;2023-05-10T11:41:24;16.67;80.41
66343;DHT22;53144;51.524;5.080;2023-05-10T11:43:51;16.66;79.60
66343;DHT22;53144;51.524;5.080;2023-05-10T11:46:19;16.55;79.72
66343;DHT22;53144;51.524;5.080;2023-05-10T11:48:46;16.66;81.54
66343;DHT22;53144;51.524;5.080;2023-05-10T11:51:12;16.41;78.73
66343;DHT22;53144;51.524;5.080;2023-05-10T11:53:38;16.53;78.36
66343;DHT22;53144;51.524;5.080;2023-05-10T11:56:10;16.63;78.27
66343;DHT22;53144;51.524;5.080;2023-05-10T11:58:39;16.67;79.69
66343;DHT22;53144;51.524;5.080;2023-05-10T12:01:07;16.80;80.64
66343;DHT22;53144;51.524;5.080;2023-05-10T12:03:33;16.88;78.86
66343;DHT22;53144;51.524;5.080;2023-05-10T12:06:00;17.01;79.93
66343;DHT22;53144;51.524;5.080;2023-05-10T12:08:27;16.94;80.29
66343;DHT22;53144;51.524;5.080;2023-05-10T12:11:03;16.81;78.00
66343;DHT22;53144;51.524;5.080;2023-05-10T12:13:29;16.67;78.03
66343;DHT22;53144;51.524;5.080;2023-05-10T12:15:57;16.55;78.75
66343;DHT22;53144;51.524;5.080;2023-05-10T12:18:23;16.79;78.96
66343;DHT22;53144;51.524;5.080;2023-05-10T12:20:52;16.95;77.39
66343;DHT22;53144;51.524;5.080;2023-05-10T12:23:19;16.99;77.45
66343;DHT22;53144;51.524;5.080;2023-05-10T12:25:45;16.99;78.12
66343;DHT22;53144;51.524;5.080;2023-05-10T12:28:11;16.88;78.87
66343;DHT22;53144;51.524;5.080;2023-05-10T12:30:37;16.67;78.56
66343;DHT22;53144;51.524;5.080;2023-05-10T12:33:12;16.69;80.93
66343;DHT22;53144;51.524;5.080;2023-05-10T12:35:49;16.42;78.33
66343;DHT22;53144;51.524;5.080;2023-05-10T12:41:01;16.19;77.41
66343;DHT22;53144;51.524;5.080;2023-05-10T12:43:27;16.11;78.56
66343;DHT22;53144;51.524;5.080;2023-05-10T12:45:53;16.21;79.34
66343;DHT22;53144;51.524;5.080;2023-05-10T12:48:18;16.25;79.23
66343;DHT22;53144;51.524;5.080;2023-05-10T12:50:44;16.29;79.04
66343;DHT22;53144;51.524;5.080;2023-05-10T12:53:09;16.22;78.84
66343;DHT22;53144;51.524;5.080;2023-05-10T12:55:35;16.21;77.91
66343;DHT22;53144;51.524;5.080;2023-05-10T12:58:00;16.26;79.70
66343;DHT22;53144;51.524;5.080;2023-05-10T13:00:26;16.41;80.82
66343;DHT22;53144;51.524;5.080;2023-05-10T13:02:51;16.48;79.22
66343;DHT22;53144;51.524;5.080;2023-05-10T13:05:17;16.51;80.40
66343;DHT22;53144;51.524;5.080;2023-05-10T13:07:42;16.43;83.00
66343;DHT22;53144;51.524;5.080;2023-05-10T13:10:09;16.25;85.87
66343;DHT22;53144;51.524;5.080;2023-05-10T13:12:35;16.16;85.82
66343;DHT22;53144;51.524;5.080;2023-05-10T13:15:01;16.35;85.53
66343;DHT22;53144;51.524;5.080;2023-05-10T13:17:26;16.33;84.67
66343;DHT22;53144;51.524;5.080;2023-05-10T13:19:51;16.28;85.77
66343;DHT22;53144;51.524;5.080;2023-05-10T13:22:17;16.05;85.28
66343;DHT22;53144;51.524;5.080;2023-05-10T13:24:42;16.04;85.37
66343;DHT22;53144;51.524;5.080;2023-05-10T13:27:08;15.91;85.61
66343;DHT22;53144;51.524;5.080;2023-05-10T13:29:33;15.91;86.64
66343;DHT22;53144;51.524;5.080;2023-05-10T13:31:59;15.77;85.38
66343;DHT22;53144;51.524;5.080;2023-05-10T13:34:24;15.66;86.59
66343;DHT22;53144;51.524;5.080;2023-05-10T13:36:50;15.54;87.46
66343;DHT22;53144;51.524;5.080;2023-05-10T13:39:16;15.29;89.38
66343;DHT22;53144;51.524;5.080;2023-05-10T13:41:41;15.12;90.18
66343;DHT22;53144;51.524;5.080;2023-05-10T13:44:07;14.82;91.53
66343;DHT22;53144;51.524;5.080;2023-05-10T13:46:32;14.84;93.03
66343;DHT22;53144;51.524;5.080;2023-05-10T13:48:58;14.65;93.83
66343;DHT22;53144;51.524;5.080;2023-05-10T13:51:23;14.64;94.98
66343;DHT22;53144;51.524;5.080;2023-05-10T13:53:48;14.52;95.71
66343;DHT22;53144;51.524;5.080;2023-05-10T13:56:14;14.40;95.90
66343;DHT22;53144;51.524;5.080;2023-05-10T13:58:40;14.45;95.97
66343;DHT22;53144;51.524;5.080;2023-05-10T14:01:06;14.54;95.79
66343;DHT22;53144;51.524;5.080;2023-05-10T14:03:31;14.60;95.94
66343;DHT22;53144;51.524;5.080;2023-05-10T14:05:57;14.52;95.53
66343;DHT22;53144;51.524;5.080;2023-05-10T14:08:23;14.56;96.97
66343;DHT22;53144;51.524;5.080;2023-05-10T14:10:48;14.52;96.78
66343;DHT22;53144;51.524;5.080;2023-05-10T14:13:15;14.60;96.04
66343;DHT22;53144;51.524;5.080;2023-05-10T14:15:40;14.65;96.13
66343;DHT22;53144;51.524;5.080;2023-05-10T14:18:06;14.65;96.17
66343;DHT22;53144;51.524;5.080;2023-05-10T14:20:32;14.78;96.63
66343;DHT22;53144;51.524;5.080;2023-05-10T14:22:59;14.74;96.54
66343;DHT22;53144;51.524;5.080;2023-05-10T14:25:25;14.99;96.22
66343;DHT22;53144;51.524;5.080;2023-05-10T14:27:50;15.23;95.63
66343;DHT22;53144;51.524;5.080;2023-05-10T14:30:16;15.44;94.54
66343;DHT22;53144;51.524;5.080;2023-05-10T14:32:41;15.66;93.53
66343;DHT22;53144;51.524;5.080;2023-05-10T14:35:07;15.18;92.87
66343;DHT22;53144;51.524;5.080;2023-05-10T14:37:32;14.95;92.92
66343;DHT22;53144;51.524;5.080;2023-05-10T14:39:58;15.03;92.93
66343;DHT22;53144;51.524;5.080;2023-05-10T14:42:23;15.10;92.96
66343;DHT22;53144;51.524;5.080;2023-05-10T14:44:49;15.05;93.36
66343;DHT22;53144;51.524;5.080;2023-05-10T14:47:14;15.15;93.13
66343;DHT22;53144;51.524;5.080;2023-05-10T14:49:39;15.22;92.64
66343;DHT22;53144;51.524;5.080;2023-05-10T14:52:05;15.19;92.93
66343;DHT22;53144;51.524;5.080;2023-05-10T14:54:31;15.29;92.87
66343;DHT22;53144;51.524;5.080;2023-05-10T14:56:58;15.22;93.24
66343;DHT22;53144;51.524;5.080;2023-05-10T14:59:24;14.91;92.28
66343;DHT22;53144;51.524;5.080;2023-05-10T15:01:49;14.71;90.72
66343;DHT22;53144;51.524;5.080;2023-05-10T15:04:14;14.96;93.48
66343;DHT22;53144;51.524;5.080;2023-05-10T15:06:41;14.93;90.95
66343;DHT22;53144;51.524;5.080;2023-05-10T15:09:07;14.79;90.30
66343;DHT22;53144;51.524;5.080;2023-05-10T15:11:32;14.52;90.40
66343;DHT22;53144;51.524;5.080;2023-05-10T15:13:57;14.50;90.32
66343;DHT22;53144;51.524;5.080;2023-05-10T15:16:23;14.58;91.58
66343;DHT22;53144;51.524;5.080;2023-05-10T15:18:48;14.65;92.78
66343;DHT22;53144;51.524;5.080;2023-05-10T15:21:14;14.77;93.82
66343;DHT22;53144;51.524;5.080;2023-05-10T15:23:39;14.57;92.49
66343;DHT22;53144;51.524;5.080;2023-05-10T15:26:05;14.64;93.45
66343;DHT22;53144;51.524;5.080;2023-05-10T15:28:30;14.58;94.19
66343;DHT22;53144;51.524;5.080;2023-05-10T15:30:55;14.57;94.36
66343;DHT22;53144;51.524;5.080;2023-05-10T15:33:21;14.63;94.16
66343;DHT22;53144;51.524;5.080;2023-05-10T15:35:47;14.64;94.94
66343;DHT22;53144;51.524;5.080;2023-05-10T15:38:12;14.68;94.83
66343;DHT22;53144;51.524;5.080;2023-05-10T15:40:38;14.45;95.62
66343;DHT22;53144;51.524;5.080;2023-05-10T15:43:03;14.42;97.02
66343;DHT22;53144;51.524;5.080;2023-05-10T15:45:30;14.41;97.43
66343;DHT22;53144;51.524;5.080;2023-05-10T15:47:55;14.31;97.27
66343;DHT22;53144;51.524;5.080;2023-05-10T15:50:21;14.13;98.03